Time;durP1;ratioP1;P1;durP2;ratioP2;P2;SDS_P1;SDS_P2;PMS_P1;PMS_P2;Temp;Humidity;BMP_temperature;BMP_pressure;BME280_temperature;BME280_humidity;BME280_pressure;Samples;Min_cycle;Max_cycle;Signal;HPM_P1;HPM_P2
2022/08/27 00:02:10;;;;;;;14.60;8.05;;;19.40;99.90;;;;;;5018120;28;20029;-64
2022/08/27 00:04:37;;;;;;;15.73;7.80;;;19.40;99.90;;;;;;5018579;28;20402;-64
2022/08/27 00:07:04;;;;;;;11.90;6.68;;;19.50;99.90;;;;;;5017592;28;20035;-63
2022/08/27 00:09:30;;;;;;;22.40;6.30;;;19.40;99.90;;;;;;5021623;28;20034;-62
2022/08/27 00:11:57;;;;;;;9.10;5.13;;;19.40;99.90;;;;;;5019627;28;20475;-64
2022/08/27 00:14:24;;;;;;;8.30;5.28;;;19.40;99.90;;;;;;5014800;28;20103;-64
2022/08/27 00:16:50;;;;;;;10.07;5.07;;;19.40;99.90;;;;;;5012845;28;20030;-62
2022/08/27 00:19:16;;;;;;;7.40;4.68;;;19.30;99.90;;;;;;5018872;28;20032;-64
2022/08/27 00:21:42;;;;;;;7.57;4.40;;;19.20;99.90;;;;;;5017276;28;20033;-64
2022/08/27 00:24:08;;;;;;;6.70;4.38;;;19.10;99.90;;;;;;5018610;28;20088;-63
2022/08/27 00:26:34;;;;;;;6.32;4.38;;;19.10;99.90;;;;;;5018484;28;20030;-63
2022/08/27 00:29:00;;;;;;;7.28;3.97;;;19.10;99.90;;;;;;5018584;28;20037;-63
2022/08/27 00:31:26;;;;;;;10.52;4.13;;;19.00;99.90;;;;;;5032136;28;20068;-62
2022/08/27 00:33:51;;;;;;;8.05;4.78;;;19.00;99.90;;;;;;5012550;28;20625;-63
2022/08/27 00:36:17;;;;;;;8.80;6.43;;;19.00;99.90;;;;;;5015503;28;20049;-64
2022/08/27 00:38:42;;;;;;;14.55;9.00;;;19.00;99.90;;;;;;5018447;28;20400;-63
2022/08/27 00:41:10;;;;;;;16.05;9.55;;;19.00;99.90;;;;;;5062748;22;20522;-58
2022/08/27 00:43:49;;;;;;;15.20;8.90;;;19.00;99.90;;;;;;5047691;28;20394;-58
2022/08/27 00:46:32;;;;;;;16.42;8.40;;;19.00;99.90;;;;;;5046666;28;20491;-58
2022/08/27 00:49:05;;;;;;;13.95;8.45;;;19.00;99.90;;;;;;5049479;28;20047;-57
2022/08/27 00:51:31;;;;;;;26.48;12.93;;;19.00;99.90;;;;;;5050160;28;20039;-58
2022/08/27 00:53:58;;;;;;;32.53;17.48;;;18.90;99.90;;;;;;5050983;28;20413;-58
2022/08/27 00:56:28;;;;;;;37.35;20.30;;;18.90;99.90;;;;;;5052911;28;20021;-57
2022/08/27 00:58:55;;;;;;;54.03;25.98;;;18.90;99.90;;;;;;5052307;28;20021;-57
2022/08/27 01:01:25;;;;;;;65.45;33.78;;;18.80;99.90;;;;;;5048987;28;21580;-56
2022/08/27 01:03:59;;;;;;;60.67;32.13;;;18.80;99.90;;;;;;5048153;28;21615;-58
2022/08/27 01:06:29;;;;;;;62.42;32.47;;;18.80;99.90;;;;;;5047136;28;20025;-56
2022/08/27 01:09:04;;;;;;;72.53;34.17;;;18.80;99.90;;;;;;5044905;28;20509;-57
2022/08/27 01:11:30;;;;;;;66.18;33.85;;;18.80;99.90;;;;;;5054913;28;20136;-58
2022/08/27 01:13:56;;;;;;;62.13;32.67;;;18.80;99.90;;;;;;5054791;28;20033;-56
2022/08/27 01:16:26;;;;;;;67.90;33.17;;;18.70;99.90;;;;;;5049343;28;20047;-59
2022/08/27 01:18:53;;;;;;;68.60;33.67;;;18.70;99.90;;;;;;5048468;28;20021;-56
2022/08/27 01:21:45;;;;;;;68.20;33.55;;;18.70;99.90;;;;;;5047996;28;20028;-59
2022/08/27 01:24:25;;;;;;;67.25;31.98;;;18.70;99.90;;;;;;5044773;28;20048;-58
2022/08/27 01:26:51;;;;;;;63.50;32.72;;;18.60;99.90;;;;;;5050040;28;20048;-57
2022/08/27 01:29:17;;;;;;;54.70;27.35;;;18.60;99.90;;;;;;5052953;28;20075;-55
2022/08/27 01:31:42;;;;;;;61.03;29.35;;;18.60;99.90;;;;;;5051189;28;20029;-56
2022/08/27 01:34:08;;;;;;;83.93;34.15;;;18.50;99.90;;;;;;5050645;28;20017;-58
2022/08/27 01:36:33;;;;;;;76.80;37.05;;;18.50;99.90;;;;;;5049346;28;20036;-57
2022/08/27 01:38:59;;;;;;;84.60;37.00;;;18.40;99.90;;;;;;5052893;28;20037;-57
2022/08/27 01:41:25;;;;;;;91.13;40.55;;;18.40;99.90;;;;;;5049753;28;20033;-57
2022/08/27 01:43:52;;;;;;;95.50;41.67;;;18.30;99.90;;;;;;5047253;28;20486;-58
2022/08/27 01:46:23;;;;;;;101.32;42.85;;;18.30;99.90;;;;;;5044809;28;20551;-58
2022/08/27 01:48:48;;;;;;;104.00;41.08;;;18.20;99.90;;;;;;5046434;28;20080;-57
2022/08/27 01:51:14;;;;;;;93.93;42.17;;;18.20;99.90;;;;;;5049763;28;20032;-54
2022/08/27 01:53:40;;;;;;;96.80;42.83;;;18.20;99.90;;;;;;5048899;28;20032;-58
2022/08/27 01:56:05;;;;;;;97.82;42.33;;;18.10;99.90;;;;;;5051770;28;20040;-57
2022/08/27 01:58:32;;;;;;;101.38;43.03;;;18.10;99.90;;;;;;5046398;28;20090;-56
2022/08/27 02:01:02;;;;;;;107.32;44.58;;;18.10;99.90;;;;;;5046405;28;20509;-55
2022/08/27 02:03:28;;;;;;;105.18;44.22;;;18.00;99.90;;;;;;5050611;28;20090;-58
2022/08/27 02:05:53;;;;;;;107.15;46.00;;;18.00;99.90;;;;;;5047361;28;20032;-59
2022/08/27 02:08:20;;;;;;;93.05;41.72;;;18.00;99.90;;;;;;5046508;28;20028;-57
2022/08/27 02:10:47;;;;;;;104.75;46.03;;;18.10;99.90;;;;;;5047552;28;20048;-56
2022/08/27 02:13:14;;;;;;;92.97;41.92;;;18.10;99.90;;;;;;5049752;28;20078;-55
2022/08/27 02:15:40;;;;;;;89.57;40.63;;;18.20;99.90;;;;;;5047730;28;20056;-56
2022/08/27 02:18:07;;;;;;;93.70;40.78;;;18.20;99.90;;;;;;5046281;28;20024;-58
2022/08/27 02:20:33;;;;;;;89.55;39.10;;;18.10;99.90;;;;;;5052909;28;20029;-56
2022/08/27 02:22:59;;;;;;;93.68;41.13;;;18.10;99.90;;;;;;5049562;28;20033;-57
2022/08/27 02:25:27;;;;;;;82.50;39.45;;;18.10;99.90;;;;;;5046156;28;20407;-57
2022/08/27 02:27:54;;;;;;;91.30;40.42;;;18.10;99.90;;;;;;5048652;28;20037;-55
2022/08/27 02:30:22;;;;;;;96.75;41.28;;;18.10;99.90;;;;;;5046994;28;20028;-57
2022/08/27 02:32:51;;;;;;;89.22;39.20;;;18.10;99.90;;;;;;5045736;28;20413;-58
2022/08/27 02:35:18;;;;;;;95.30;39.95;;;18.00;99.90;;;;;;5047693;28;20465;-58
2022/08/27 02:37:45;;;;;;;91.53;41.38;;;18.00;99.90;;;;;;5050958;28;20016;-55
2022/08/27 02:40:16;;;;;;;106.45;45.20;;;18.00;99.90;;;;;;5047122;28;20032;-59
2022/08/27 02:42:43;;;;;;;99.75;42.50;;;18.00;99.90;;;;;;5048785;28;20032;-57
2022/08/27 02:45:09;;;;;;;100.07;41.95;;;18.00;99.90;;;;;;5047604;28;20210;-56
2022/08/27 02:47:34;;;;;;;100.55;43.25;;;18.00;99.90;;;;;;5047007;28;20116;-55
2022/08/27 02:50:00;;;;;;;102.20;42.15;;;18.00;99.90;;;;;;5049343;28;20258;-57
2022/08/27 02:52:28;;;;;;;95.15;41.97;;;18.00;99.90;;;;;;5050386;28;20041;-55
2022/08/27 02:54:55;;;;;;;89.60;40.58;;;18.00;99.90;;;;;;5043926;28;20027;-59
2022/08/27 02:57:21;;;;;;;87.25;40.28;;;18.00;99.90;;;;;;5046613;28;20029;-56
2022/08/27 02:59:47;;;;;;;85.38;38.95;;;18.00;99.90;;;;;;5050441;28;20032;-57
2022/08/27 03:02:13;;;;;;;90.53;41.15;;;18.10;99.90;;;;;;5044412;28;20032;-58
2022/08/27 03:04:39;;;;;;;94.32;39.97;;;18.10;99.90;;;;;;5048792;28;20060;-57
2022/08/27 03:07:05;;;;;;;90.78;41.50;;;18.10;99.90;;;;;;5044145;28;20068;-56
2022/08/27 03:09:31;;;;;;;92.18;40.88;;;18.10;99.90;;;;;;5047026;28;20525;-58
2022/08/27 03:11:57;;;;;;;86.65;40.17;;;18.10;99.90;;;;;;5050372;28;20032;-58
2022/08/27 03:14:22;;;;;;;88.47;37.85;;;18.10;99.90;;;;;;5049850;28;20078;-57
2022/08/27 03:16:48;;;;;;;86.18;39.33;;;18.10;99.90;;;;;;5048324;28;20059;-58
2022/08/27 03:19:14;;;;;;;81.32;35.92;;;18.10;99.90;;;;;;5045410;28;20035;-58
2022/08/27 03:21:39;;;;;;;85.88;38.30;;;18.10;99.90;;;;;;5045626;28;20074;-58
2022/08/27 03:24:05;;;;;;;91.97;38.85;;;18.10;99.90;;;;;;5046684;28;20028;-56
2022/08/27 03:26:31;;;;;;;86.22;38.85;;;18.10;99.90;;;;;;5042706;28;20029;-57
2022/08/27 03:28:57;;;;;;;86.85;37.08;;;18.10;99.90;;;;;;5046521;28;20029;-55
2022/08/27 03:31:28;;;;;;;85.10;37.88;;;18.10;99.90;;;;;;5048627;28;20033;-57
2022/08/27 03:34:05;;;;;;;73.70;35.83;;;18.10;99.90;;;;;;5044009;28;20372;-58
2022/08/27 03:36:31;;;;;;;72.20;35.70;;;18.10;99.90;;;;;;5047827;28;20029;-54
2022/08/27 03:38:57;;;;;;;86.22;39.10;;;18.10;99.90;;;;;;5047277;28;20394;-55
2022/08/27 03:41:24;;;;;;;74.43;35.38;;;18.10;99.90;;;;;;5049062;28;20036;-57
2022/08/27 03:43:51;;;;;;;72.05;35.25;;;18.10;99.90;;;;;;5050591;28;20041;-54
2022/08/27 03:46:18;;;;;;;79.40;37.30;;;18.10;99.90;;;;;;5050475;28;20063;-55
2022/08/27 03:48:43;;;;;;;70.20;33.72;;;18.10;99.90;;;;;;5049280;28;20036;-54
2022/08/27 03:51:12;;;;;;;78.05;33.83;;;18.20;99.90;;;;;;5054533;28;20033;-57
2022/08/27 03:53:39;;;;;;;72.55;32.90;;;18.10;99.90;;;;;;5052169;28;20075;-55
2022/08/27 03:56:05;;;;;;;72.38;34.63;;;18.10;99.90;;;;;;5053141;28;20145;-56
2022/08/27 03:58:31;;;;;;;75.60;36.95;;;18.20;99.90;;;;;;5046464;28;20422;-57
2022/08/27 04:00:57;;;;;;;73.38;31.75;;;18.20;99.90;;;;;;5053342;28;20092;-58
2022/08/27 04:03:23;;;;;;;70.03;34.58;;;18.20;99.90;;;;;;5052924;28;20068;-58
2022/08/27 04:05:52;;;;;;;61.63;27.83;;;18.20;99.90;;;;;;5049002;28;20039;-57
2022/08/27 04:08:18;;;;;;;74.88;30.90;;;18.20;99.90;;;;;;5051760;28;20563;-54
2022/08/27 04:10:43;;;;;;;66.53;29.23;;;18.20;99.90;;;;;;5046575;28;20025;-55
2022/08/27 04:13:09;;;;;;;57.47;25.42;;;18.20;99.90;;;;;;5055508;28;20030;-57
2022/08/27 04:15:35;;;;;;;61.20;28.15;;;18.20;99.90;;;;;;5048612;28;20100;-58
2022/08/27 04:18:01;;;;;;;48.63;23.63;;;18.10;99.90;;;;;;5046700;28;20029;-58
2022/08/27 04:20:27;;;;;;;43.70;21.80;;;18.10;99.90;;;;;;5051906;28;20062;-58
2022/08/27 04:22:52;;;;;;;52.72;22.40;;;18.10;99.90;;;;;;5053772;28;20104;-57
2022/08/27 04:25:18;;;;;;;44.38;22.83;;;18.10;99.90;;;;;;5052245;28;20483;-57
2022/08/27 04:27:43;;;;;;;52.90;21.67;;;18.10;99.90;;;;;;5050643;28;20097;-55
2022/08/27 04:30:13;;;;;;;53.45;21.02;;;18.20;99.90;;;;;;5051453;28;20028;-57
2022/08/27 04:32:39;;;;;;;40.83;19.08;;;18.20;99.90;;;;;;5046812;28;20094;-57
2022/08/27 04:35:05;;;;;;;44.90;19.40;;;18.20;99.90;;;;;;5050722;28;20495;-58
2022/08/27 04:37:31;;;;;;;44.38;21.15;;;18.20;99.90;;;;;;5050212;28;20056;-57
2022/08/27 04:39:58;;;;;;;39.95;19.88;;;18.20;99.90;;;;;;5050239;28;20029;-57
2022/08/27 04:42:24;;;;;;;43.60;19.75;;;18.20;99.90;;;;;;5048801;28;20028;-57
2022/08/27 04:44:51;;;;;;;40.85;20.02;;;18.20;99.90;;;;;;5051332;28;20372;-56
2022/08/27 04:47:17;;;;;;;40.15;19.58;;;18.20;99.90;;;;;;5044589;28;20029;-56
2022/08/27 04:49:42;;;;;;;43.15;19.63;;;18.20;99.90;;;;;;5051990;28;20497;-56
2022/08/27 04:52:08;;;;;;;43.35;19.30;;;18.20;99.90;;;;;;5046807;28;20025;-58
2022/08/27 04:54:34;;;;;;;46.75;21.95;;;18.20;99.90;;;;;;5050012;28;20029;-58
2022/08/27 04:57:01;;;;;;;42.85;19.65;;;18.20;99.90;;;;;;5051832;28;20317;-55
2022/08/27 04:59:27;;;;;;;42.05;18.13;;;18.20;99.90;;;;;;5047925;28;20033;-55
2022/08/27 05:01:52;;;;;;;40.90;19.13;;;18.20;99.90;;;;;;5050683;28;20109;-58
2022/08/27 05:04:18;;;;;;;43.50;21.73;;;18.30;99.90;;;;;;5049564;28;20429;-57
2022/08/27 05:06:44;;;;;;;45.38;21.08;;;18.30;99.90;;;;;;5047789;28;20167;-55
2022/08/27 05:09:12;;;;;;;35.40;18.10;;;18.30;99.90;;;;;;5055119;28;20017;-57
2022/08/27 05:11:38;;;;;;;37.05;18.25;;;18.20;99.90;;;;;;5053473;28;20549;-57
2022/08/27 05:14:05;;;;;;;32.25;17.08;;;18.30;99.90;;;;;;5053134;28;20017;-56
2022/08/27 05:16:32;;;;;;;33.20;16.05;;;18.20;99.90;;;;;;5046776;28;20024;-57
2022/08/27 05:18:58;;;;;;;37.88;14.27;;;18.20;99.90;;;;;;5050478;28;20520;-57
2022/08/27 05:21:30;;;;;;;34.40;15.88;;;18.20;99.90;;;;;;5048421;28;20032;-57
2022/08/27 05:23:58;;;;;;;30.67;14.25;;;18.10;99.90;;;;;;5048831;28;20075;-58
2022/08/27 05:26:24;;;;;;;29.08;14.15;;;18.10;99.90;;;;;;5044328;28;20040;-57
2022/08/27 05:28:50;;;;;;;30.85;13.68;;;18.10;99.90;;;;;;5044512;28;20037;-56
2022/08/27 05:31:18;;;;;;;28.05;13.73;;;18.10;99.90;;;;;;5046758;28;20025;-56
2022/08/27 05:33:44;;;;;;;28.90;12.15;;;18.10;99.90;;;;;;5045296;28;20179;-56
2022/08/27 05:36:19;;;;;;;28.80;11.75;;;18.10;99.90;;;;;;5042730;28;20111;-54
2022/08/27 05:38:47;;;;;;;29.02;11.77;;;18.10;99.90;;;;;;5047077;28;20032;-57
2022/08/27 05:41:16;;;;;;;24.48;10.90;;;18.10;99.90;;;;;;5048466;28;20029;-56
2022/08/27 05:43:43;;;;;;;22.73;10.65;;;18.00;99.90;;;;;;5047128;28;20025;-59
2022/08/27 05:46:11;;;;;;;21.65;11.13;;;18.00;99.90;;;;;;5048722;28;20025;-55
2022/08/27 05:48:38;;;;;;;17.58;10.55;;;17.90;99.90;;;;;;5048689;28;20037;-57
2022/08/27 05:51:25;;;;;;;32.33;12.25;;;17.90;99.90;;;;;;5047080;28;20078;-58
2022/08/27 05:53:55;;;;;;;24.38;12.80;;;17.80;99.90;;;;;;5048180;28;20044;-56
2022/08/27 05:56:23;;;;;;;31.48;12.95;;;17.70;99.90;;;;;;5047376;28;20431;-57
2022/08/27 06:01:36;;;;;;;31.48;15.43;;;17.50;99.90;;;;;;5047999;28;20074;-58
2022/08/27 06:04:05;;;;;;;32.28;14.48;;;17.50;99.90;;;;;;5048829;28;20056;-57
2022/08/27 06:06:35;;;;;;;33.03;15.68;;;17.50;99.90;;;;;;5044004;28;20025;-58
2022/08/27 06:09:00;;;;;;;33.75;14.70;;;17.50;99.90;;;;;;5048061;28;20048;-57
2022/08/27 06:11:27;;;;;;;27.08;15.18;;;17.50;99.90;;;;;;5049140;28;20071;-56
2022/08/27 06:13:54;;;;;;;32.63;16.00;;;17.50;99.90;;;;;;5045864;28;20114;-56
2022/08/27 06:16:19;;;;;;;28.85;16.00;;;17.50;99.90;;;;;;5029356;28;20033;-57
2022/08/27 06:18:46;;;;;;;33.63;18.08;;;17.50;99.90;;;;;;5049792;28;20025;-57
2022/08/27 06:21:13;;;;;;;33.42;16.80;;;17.40;99.90;;;;;;5045961;28;20819;-57
2022/08/27 06:23:39;;;;;;;28.35;17.17;;;17.40;99.90;;;;;;5049859;28;20151;-56
2022/08/27 06:26:07;;;;;;;29.77;17.38;;;17.40;99.90;;;;;;5051281;28;20107;-53
2022/08/27 06:28:34;;;;;;;37.13;19.45;;;17.40;99.90;;;;;;5050840;28;20040;-57
2022/08/27 06:31:05;;;;;;;37.45;18.25;;;17.40;99.90;;;;;;5047588;28;20695;-57
2022/08/27 06:33:31;;;;;;;36.08;18.45;;;17.40;99.90;;;;;;5046312;28;20107;-54
2022/08/27 06:36:01;;;;;;;29.15;15.15;;;17.40;99.90;;;;;;5050391;28;20610;-57
2022/08/27 06:38:27;;;;;;;37.33;18.30;;;17.50;99.90;;;;;;5046843;28;20089;-56
2022/08/27 06:40:53;;;;;;;29.20;15.93;;;17.50;99.90;;;;;;5068866;22;20861;-64
2022/08/27 06:43:19;;;;;;;32.10;14.98;;;17.50;99.90;;;;;;5065515;28;20383;-62
2022/08/27 06:45:45;;;;;;;23.17;13.45;;;17.50;99.90;;;;;;5067230;28;20032;-63
2022/08/27 06:48:10;;;;;;;21.98;13.18;;;17.60;99.90;;;;;;5069086;28;20024;-63
2022/08/27 06:50:37;;;;;;;18.55;13.45;;;17.50;99.90;;;;;;5068409;28;20025;-64
2022/08/27 06:53:03;;;;;;;18.27;11.45;;;17.50;99.90;;;;;;5068218;28;20025;-62
2022/08/27 06:55:29;;;;;;;18.38;11.98;;;17.50;99.90;;;;;;5068777;28;20032;-64
2022/08/27 06:57:55;;;;;;;20.92;12.07;;;17.50;99.90;;;;;;5065634;28;20029;-63
2022/08/27 07:00:20;;;;;;;18.08;12.13;;;17.40;99.90;;;;;;5066576;28;20655;-63
2022/08/27 07:02:46;;;;;;;20.05;12.57;;;17.40;99.90;;;;;;5065674;28;20071;-64
2022/08/27 07:05:11;;;;;;;25.63;12.85;;;17.30;99.90;;;;;;5067088;28;20035;-64
2022/08/27 07:07:37;;;;;;;16.98;11.65;;;17.10;99.90;;;;;;5064820;28;20589;-62
2022/08/27 07:10:03;;;;;;;22.05;12.57;;;17.10;99.90;;;;;;5067286;28;20223;-63
2022/08/27 07:12:29;;;;;;;19.70;12.15;;;17.10;99.90;;;;;;5069399;28;20398;-63
2022/08/27 07:14:54;;;;;;;28.20;12.57;;;17.10;99.90;;;;;;5069803;28;20012;-62
2022/08/27 07:17:20;;;;;;;18.08;12.35;;;17.10;99.90;;;;;;5070327;28;20024;-63
2022/08/27 07:19:46;;;;;;;22.52;13.73;;;17.10;99.90;;;;;;5070617;28;20020;-63
2022/08/27 07:22:11;;;;;;;20.02;13.32;;;17.10;99.90;;;;;;5069154;28;20025;-63
2022/08/27 07:24:37;;;;;;;19.08;13.13;;;17.10;99.90;;;;;;5074046;28;20024;-63
2022/08/27 07:27:03;;;;;;;22.48;13.77;;;17.10;99.90;;;;;;5072775;28;20398;-63
2022/08/27 07:29:29;;;;;;;24.35;14.30;;;17.10;99.90;;;;;;5067160;28;20040;-61
2022/08/27 07:31:54;;;;;;;19.95;13.50;;;17.10;99.90;;;;;;5065282;28;20100;-63
2022/08/27 07:34:20;;;;;;;24.40;14.18;;;17.10;99.90;;;;;;5065791;28;20104;-63
2022/08/27 07:36:45;;;;;;;23.83;13.52;;;17.00;99.90;;;;;;5060930;28;20113;-63
2022/08/27 07:39:12;;;;;;;24.27;14.30;;;17.00;99.90;;;;;;5065953;28;20738;-62
2022/08/27 07:44:26;;;;;;;21.45;12.75;;;17.00;99.90;;;;;;5068882;28;20046;-64
2022/08/27 07:46:53;;;;;;;27.05;13.77;;;17.00;99.90;;;;;;5067783;28;20037;-63
2022/08/27 07:49:21;;;;;;;18.48;12.52;;;17.10;99.90;;;;;;5072684;28;20024;-63
2022/08/27 07:51:47;;;;;;;18.70;12.32;;;17.10;99.90;;;;;;5069613;28;20028;-63
2022/08/27 07:54:13;;;;;;;21.25;12.80;;;17.10;99.90;;;;;;5070949;28;20028;-64
2022/08/27 07:56:40;;;;;;;16.88;12.70;;;17.20;99.90;;;;;;5066829;28;20021;-64
2022/08/27 07:59:05;;;;;;;21.40;12.95;;;17.10;99.90;;;;;;5071975;28;20036;-63
2022/08/27 08:01:31;;;;;;;24.10;12.60;;;17.10;99.90;;;;;;5070717;28;20024;-64
2022/08/27 08:03:56;;;;;;;20.92;11.82;;;17.00;99.90;;;;;;5067733;28;20037;-63
2022/08/27 08:06:22;;;;;;;23.42;12.18;;;17.10;99.90;;;;;;5067260;28;20043;-63
2022/08/27 08:08:48;;;;;;;16.77;12.00;;;17.10;99.90;;;;;;5070960;28;20052;-63
2022/08/27 08:11:15;;;;;;;21.95;11.77;;;17.10;99.90;;;;;;5065660;28;20043;-63
2022/08/27 08:13:42;;;;;;;21.23;12.63;;;17.10;99.90;;;;;;5061761;28;20397;-63
2022/08/27 08:16:08;;;;;;;21.40;13.07;;;17.10;99.90;;;;;;5063309;28;20021;-62
2022/08/27 08:18:35;;;;;;;19.15;11.50;;;17.10;99.90;;;;;;5068853;28;20024;-63
2022/08/27 08:21:02;;;;;;;20.13;12.23;;;17.10;99.90;;;;;;5071300;28;20039;-64
2022/08/27 08:23:28;;;;;;;23.67;11.77;;;17.10;99.90;;;;;;5072544;28;20053;-63
2022/08/27 08:25:54;;;;;;;18.42;12.00;;;17.10;99.90;;;;;;5073506;28;20043;-63
2022/08/27 08:28:19;;;;;;;24.73;13.50;;;17.10;99.90;;;;;;5069297;28;20051;-64
2022/08/27 08:30:46;;;;;;;25.42;12.93;;;17.10;99.90;;;;;;5068689;28;20016;-63
2022/08/27 08:33:12;;;;;;;21.08;12.77;;;17.20;99.90;;;;;;5069483;28;20422;-62
2022/08/27 08:35:39;;;;;;;26.45;13.10;;;17.10;99.90;;;;;;5068977;28;20085;-61
2022/08/27 08:38:05;;;;;;;26.30;16.40;;;17.20;99.90;;;;;;5067654;28;20029;-61
2022/08/27 08:40:38;;;;;;;26.65;16.33;;;17.30;99.90;;;;;;5067502;28;20024;-64
2022/08/27 08:43:18;;;;;;;31.70;20.33;;;17.30;99.90;;;;;;5075253;28;20036;-67
2022/08/27 08:45:44;;;;;;;32.00;19.92;;;17.40;99.90;;;;;;5072169;28;20101;-68
2022/08/27 08:48:18;;;;;;;33.90;21.50;;;17.40;99.90;;;;;;5069824;28;20602;-67
2022/08/27 08:50:54;;;;;;;32.22;21.85;;;17.40;99.90;;;;;;5071144;28;20028;-68
2022/08/27 08:53:47;;;;;;;38.42;21.85;;;17.40;99.90;;;;;;5072581;28;20029;-67
2022/08/27 08:56:38;;;;;;;38.75;22.92;;;17.40;99.90;;;;;;5074900;28;20017;-67
2022/08/27 08:59:20;;;;;;;33.88;20.52;;;17.50;99.90;;;;;;5062386;28;20111;-67
2022/08/27 09:01:48;;;;;;;32.10;21.85;;;17.50;99.90;;;;;;5062969;28;20028;-67
2022/08/27 09:04:17;;;;;;;35.47;22.88;;;17.60;99.90;;;;;;5076655;28;20020;-67
2022/08/27 09:07:01;;;;;;;41.05;22.20;;;17.60;99.90;;;;;;5070044;28;20450;-66
2022/08/27 09:09:43;;;;;;;37.25;21.80;;;17.60;99.90;;;;;;5070479;28;20238;-67
2022/08/27 09:12:25;;;;;;;34.13;21.33;;;17.60;99.90;;;;;;5055579;28;20040;-67
2022/08/27 09:14:59;;;;;;;29.10;20.17;;;17.50;99.90;;;;;;5067309;28;20115;-68
2022/08/27 09:17:25;;;;;;;33.65;21.60;;;17.50;99.90;;;;;;5065445;28;20518;-68
2022/08/27 09:19:50;;;;;;;37.38;21.50;;;17.50;99.90;;;;;;5067947;28;20036;-67
2022/08/27 09:22:41;;;;;;;39.95;20.80;;;17.50;99.90;;;;;;5063544;28;20532;-66
2022/08/27 09:25:14;;;;;;;31.73;20.00;;;17.50;99.90;;;;;;5065325;28;20036;-66
2022/08/27 09:27:41;;;;;;;31.80;20.45;;;17.60;99.90;;;;;;5062461;28;20024;-65
2022/08/27 09:30:19;;;;;;;33.83;20.15;;;17.60;99.90;;;;;;5060084;28;20032;-66
2022/08/27 09:32:51;;;;;;;34.30;19.33;;;17.70;99.90;;;;;;5068024;28;20442;-66
2022/08/27 09:35:16;;;;;;;34.83;19.63;;;17.70;99.90;;;;;;5069064;28;20078;-66
2022/08/27 09:37:46;;;;;;;33.47;17.45;;;17.60;99.90;;;;;;5065862;28;20033;-66
2022/08/27 09:40:27;;;;;;;30.60;17.38;;;17.70;99.90;;;;;;5072463;28;20020;-66
2022/08/27 09:42:56;;;;;;;34.42;17.92;;;17.70;99.90;;;;;;5058675;28;20036;-66
2022/08/27 09:45:28;;;;;;;32.97;15.95;;;17.70;99.90;;;;;;5063986;28;20035;-66
2022/08/27 09:48:12;;;;;;;28.65;14.38;;;17.70;99.90;;;;;;5059304;28;20030;-66
2022/08/27 09:50:45;;;;;;;28.20;15.73;;;17.70;99.90;;;;;;5064412;28;20402;-66
2022/08/27 09:53:24;;;;;;;25.45;14.68;;;17.80;99.90;;;;;;5061745;28;20468;-66
2022/08/27 09:56:02;;;;;;;23.70;13.52;;;17.80;99.90;;;;;;5060434;28;20021;-66
2022/08/27 09:59:03;;;;;;;28.23;12.55;;;17.90;99.90;;;;;;5067409;28;20120;-66
2022/08/27 10:01:31;;;;;;;26.95;13.18;;;17.90;99.90;;;;;;5064055;28;20119;-66
2022/08/27 10:04:13;;;;;;;21.17;12.52;;;17.90;99.90;;;;;;5061829;28;20029;-67
2022/08/27 10:06:47;;;;;;;25.38;12.93;;;18.00;99.90;;;;;;5058229;28;20021;-67
2022/08/27 10:09:27;;;;;;;31.10;12.40;;;18.00;99.90;;;;;;5064020;28;20029;-66
2022/08/27 10:12:10;;;;;;;27.23;11.80;;;18.10;99.90;;;;;;5069180;28;20035;-66
2022/08/27 10:14:43;;;;;;;23.85;11.98;;;18.10;99.90;;;;;;5073228;28;20028;-67
2022/08/27 10:17:31;;;;;;;23.77;13.20;;;18.10;99.90;;;;;;5074311;28;20027;-66
2022/08/27 10:20:17;;;;;;;24.25;12.27;;;18.00;99.90;;;;;;5067680;28;20078;-67
2022/08/27 10:23:18;;;;;;;25.58;13.02;;;18.00;99.90;;;;;;5066210;28;20031;-66
2022/08/27 10:26:10;;;;;;;24.48;12.45;;;18.10;99.90;;;;;;5064682;28;20111;-66
2022/08/27 10:29:11;;;;;;;39.08;12.80;;;18.10;99.90;;;;;;5069958;28;20039;-66
2022/08/27 10:31:46;;;;;;;23.73;12.20;;;18.10;99.90;;;;;;5069025;28;20023;-66
2022/08/27 10:34:27;;;;;;;22.15;12.18;;;18.20;99.90;;;;;;5061582;28;20120;-66
2022/08/27 10:37:08;;;;;;;22.90;11.75;;;18.30;99.90;;;;;;5064569;28;20021;-66
2022/08/27 10:40:09;;;;;;;21.88;11.77;;;18.50;99.90;;;;;;5067408;28;20101;-67
2022/08/27 10:42:50;;;;;;;27.92;11.07;;;18.70;99.90;;;;;;5059601;28;20036;-66
2022/08/27 10:45:19;;;;;;;16.00;9.60;;;18.80;99.90;;;;;;5069240;28;20025;-66
2022/08/27 10:47:48;;;;;;;15.05;9.68;;;18.80;99.90;;;;;;5060161;28;20028;-66
2022/08/27 10:50:23;;;;;;;19.67;9.70;;;18.80;99.90;;;;;;5065592;28;20391;-66
2022/08/27 10:53:06;;;;;;;19.25;8.52;;;18.80;99.90;;;;;;5062869;28;20029;-66
2022/08/27 10:55:39;;;;;;;19.08;8.98;;;18.80;99.90;;;;;;5066006;28;20023;-68
2022/08/27 10:58:18;;;;;;;16.42;7.30;;;18.80;99.90;;;;;;5056086;28;20029;-66
2022/08/27 11:00:59;;;;;;;16.27;7.03;;;18.80;99.90;;;;;;5052882;28;20036;-66
2022/08/27 11:03:45;;;;;;;19.83;8.32;;;18.90;99.90;;;;;;5061752;28;20028;-66
2022/08/27 11:06:21;;;;;;;12.80;6.72;;;18.90;99.90;;;;;;5065627;28;20028;-66
2022/08/27 11:08:52;;;;;;;15.88;6.95;;;18.90;99.90;;;;;;5051320;28;20070;-66
2022/08/27 11:11:33;;;;;;;20.10;6.50;;;18.90;99.90;;;;;;5068831;28;20082;-66
2022/08/27 11:14:00;;;;;;;10.55;6.55;;;19.00;99.90;;;;;;5049199;28;20021;-66
2022/08/27 11:16:33;;;;;;;11.88;6.57;;;19.10;99.90;;;;;;5060130;28;20413;-66
2022/08/27 11:19:05;;;;;;;13.95;6.22;;;19.20;99.90;;;;;;5062216;28;20568;-66
2022/08/27 11:21:38;;;;;;;15.63;6.35;;;19.30;99.90;;;;;;5066682;28;20033;-66
2022/08/27 11:24:28;;;;;;;12.85;6.35;;;19.40;99.90;;;;;;5056070;28;20017;-66
2022/08/27 11:26:59;;;;;;;14.20;6.72;;;19.50;99.90;;;;;;5061260;28;20036;-66
2022/08/27 11:29:39;;;;;;;17.15;6.70;;;19.40;99.90;;;;;;5061624;28;20492;-67
2022/08/27 11:32:04;;;;;;;10.70;5.75;;;19.30;99.90;;;;;;5075430;28;20028;-66
2022/08/27 11:35:06;;;;;;;11.18;6.30;;;19.30;99.90;;;;;;5073349;28;20031;-66
2022/08/27 11:37:45;;;;;;;24.60;6.20;;;19.40;99.90;;;;;;5058017;28;20390;-67
2022/08/27 11:40:13;;;;;;;13.18;5.78;;;19.40;99.90;;;;;;5056495;28;20037;-66
2022/08/27 11:43:06;;;;;;;17.10;6.38;;;19.50;99.90;;;;;;5061705;28;20842;-66
2022/08/27 11:45:37;;;;;;;14.90;6.45;;;19.60;99.90;;;;;;5062942;28;20045;-66
2022/08/27 11:48:31;;;;;;;14.20;6.50;;;19.70;99.90;;;;;;5061397;28;20032;-67
2022/08/27 11:51:01;;;;;;;14.70;7.57;;;19.70;99.90;;;;;;5059293;28;20056;-66
2022/08/27 11:53:39;;;;;;;17.15;7.20;;;19.70;99.90;;;;;;5049530;28;20032;-67
2022/08/27 11:56:42;;;;;;;10.95;7.28;;;19.80;99.90;;;;;;5056233;28;20029;-67
2022/08/27 11:59:30;;;;;;;15.45;7.03;;;19.90;99.90;;;;;;5055100;28;20040;-67
2022/08/27 12:02:28;;;;;;;12.13;7.75;;;19.90;99.90;;;;;;5062366;28;20028;-67
2022/08/27 12:05:09;;;;;;;13.73;7.53;;;19.90;99.90;;;;;;5058054;28;20032;-67
2022/08/27 12:07:38;;;;;;;11.30;7.28;;;20.00;99.90;;;;;;5064615;28;20025;-67
2022/08/27 12:10:07;;;;;;;11.07;7.50;;;20.10;99.90;;;;;;5062493;28;20029;-67
2022/08/27 12:12:57;;;;;;;13.63;8.10;;;20.20;99.90;;;;;;5060650;28;20074;-66
2022/08/27 12:15:41;;;;;;;14.85;6.68;;;20.30;99.90;;;;;;5062918;28;20036;-66
2022/08/27 12:18:17;;;;;;;12.98;7.47;;;20.30;99.90;;;;;;5066675;28;20048;-66
2022/08/27 12:20:55;;;;;;;11.93;6.93;;;20.30;99.90;;;;;;5061577;28;20083;-67
2022/08/27 12:23:39;;;;;;;16.35;6.82;;;20.30;99.90;;;;;;5071510;28;20059;-67
2022/08/27 12:26:52;;;;;;;12.23;7.45;;;20.30;99.90;;;;;;5062015;28;20029;-67
2022/08/27 12:29:23;;;;;;;16.42;6.25;;;20.30;99.90;;;;;;5051552;28;20033;-66
2022/08/27 12:31:58;;;;;;;16.65;7.38;;;20.50;99.90;;;;;;5058912;28;20119;-66
2022/08/27 12:34:27;;;;;;;16.08;7.65;;;20.40;99.90;;;;;;5062830;28;20368;-66
2022/08/27 12:36:53;;;;;;;13.23;6.60;;;20.40;99.90;;;;;;5063974;28;20029;-66
2022/08/27 12:39:27;;;;;;;13.48;6.93;;;20.50;99.90;;;;;;5059903;28;20081;-66
2022/08/27 12:41:53;;;;;;;13.57;6.78;;;20.70;99.90;;;;;;5075287;22;20079;-54
2022/08/27 12:44:28;;;;;;;12.50;6.88;;;20.60;99.90;;;;;;5039042;28;20080;-55
2022/08/27 12:47:03;;;;;;;16.90;8.40;;;20.60;99.90;;;;;;5040097;28;20752;-53
2022/08/27 12:49:50;;;;;;;11.88;6.72;;;20.60;99.90;;;;;;5041436;28;20402;-56
2022/08/27 12:52:34;;;;;;;14.57;6.75;;;20.60;99.90;;;;;;5042751;28;20028;-56